Julington Creek, Florida
Current Conditions -  °F | °C
As of 4:53 PM on Friday 19 Dec 2014 (Local Time) from KNIP Reporting Station
Broken Clouds Broken Clouds  
Wind Chill: 70°   Ceiling: 18000
Heat Index: 70°   Visibility: 10mi
Dew Point: 31°   Wind: 3mph
Humidity: 24%   Direction: 70°ENE
Pressure: 30.09"   Gusts: NA
Location:  30.0735°N, 81.5808°W
Report Text: KNIP 192153Z 07003KT 10SM BKN180 BKN250 21/M01 A3009 RMK AO2 SLP183 T02111006
Loading
Personal Weather Stations






























Interactive Weather Map New forecast layout! Learn more

10-Day Weather Forecast

Advertisements
Track Severe Weather on mobile